Evansville, Vermont
Current Conditions -  °F | °C
As of 12:35 PM on Wednesday 26 Nov 2014 (Local Time) from KEFK Reporting Station
Overcast Overcast  
Wind Chill: 27°   Ceiling: 2600
Heat Index: 32°   Visibility: 10mi
Dew Point: 25°   Wind: 5mph
Humidity: 75%   Direction: 360°N
Pressure: 30.17"   Gusts: NA
Location:  44.7955°N, 72.0983°W
Report Text: KEFK 261735Z AUTO 36004KT 10SM OVC026 00/M04 A3017 RMK AO2 T10011040
Loading
Personal Weather Stations






























Interactive Weather Map New forecast layout! Learn more

10-Day Weather Forecast

Advertisements
Track Severe Weather on mobile